LPA4320 UNNT-UIUU
Flight info
| Callsign | LPA4320 |
|---|---|
| Flight time | 2h 19m |
| Altitude | 37000 |
| Route | OGATI1K OGATI A308 RISPA A822 LAPAK B151 RO A817 SUKOR A91 KA A806 OSTUN OSTUN1N |
| Aircraft | A320/M-SDE3FGHIRWY/LB1 |
Departure
| Time | 2026-04-25 18:04 |
|---|---|
| Airport | Novosibirsk Tolmachevo Airport (UNNT) |
Arrival
| Time | 2026-04-25 20:23 |
|---|---|
| Airport | Baikal International Airport (UIUU) |
| Time | Latitude | Longitude | Altitude | Speed | Heading |
|---|---|---|---|---|---|
| 2026-04-25 17:34 | 55.01013 | 82.66588 | 373 ft | 0 kts | 172° |
| 2026-04-25 17:51 | 55.01023 | 82.66585 | 373 ft | 2 kts | 169° |
| 2026-04-25 17:51 | 55.01039 | 82.66581 | 373 ft | 2 kts | 170° |
| 2026-04-25 17:51 | 55.01055 | 82.66576 | 373 ft | 2 kts | 171° |
| 2026-04-25 17:51 | 55.01071 | 82.66572 | 373 ft | 2 kts | 169° |
| 2026-04-25 17:52 | 55.01087 | 82.66567 | 373 ft | 2 kts | 170° |
| 2026-04-25 17:52 | 55.01092 | 82.66565 | 373 ft | 2 kts | 174° |
| 2026-04-25 17:52 | 55.01113 | 82.66559 | 373 ft | 0 kts | 168° |
| 2026-04-25 17:53 | 55.01118 | 82.66558 | 373 ft | 0 kts | 168° |
| 2026-04-25 18:01 | 55.01091 | 82.66572 | 373 ft | 5 kts | 150° |
| 2026-04-25 18:01 | 55.01087 | 82.66641 | 373 ft | 6 kts | 44° |
| 2026-04-25 18:01 | 55.01128 | 82.66656 | 373 ft | 5 kts | 355° |
| 2026-04-25 18:02 | 55.01162 | 82.66648 | 373 ft | 4 kts | 352° |
| 2026-04-25 18:02 | 55.01188 | 82.66642 | 373 ft | 3 kts | 352° |
| 2026-04-25 18:02 | 55.01253 | 82.66625 | 373 ft | 15 kts | 351° |
| 2026-04-25 18:02 | 55.01340 | 82.66599 | 374 ft | 10 kts | 345° |
| 2026-04-25 18:03 | 55.01378 | 82.66535 | 375 ft | 6 kts | 287° |
| 2026-04-25 18:03 | 55.01374 | 82.66469 | 375 ft | 5 kts | 258° |
| 2026-04-25 18:03 | 55.01373 | 82.66459 | 375 ft | 4 kts | 259° |
| 2026-04-25 18:03 | 55.01321 | 82.65898 | 373 ft | 91 kts | 262° |
| 2026-04-25 18:04 | 55.01177 | 82.64365 | 377 ft | 163 kts | 259° |
| 2026-04-25 18:04 | 55.01003 | 82.62317 | 1058 ft | 172 kts | 259° |
| 2026-04-25 18:04 | 55.00819 | 82.60252 | 2046 ft | 173 kts | 254° |
| 2026-04-25 18:04 | 55.00623 | 82.58144 | 2720 ft | 182 kts | 255° |
| 2026-04-25 18:05 | 55.00405 | 82.55844 | 3032 ft | 201 kts | 256° |
| 2026-04-25 18:05 | 55.00252 | 82.53327 | 3053 ft | 221 kts | 272° |
| 2026-04-25 18:05 | 55.00938 | 82.50839 | 3027 ft | 243 kts | 313° |
| 2026-04-25 18:05 | 55.02476 | 82.49524 | 3022 ft | 255 kts | 349° |
| 2026-04-25 18:06 | 55.04268 | 82.49413 | 3013 ft | 260 kts | 3° |
| 2026-04-25 18:06 | 55.06068 | 82.49759 | 3006 ft | 260 kts | 7° |
| 2026-04-25 18:06 | 55.07248 | 82.50054 | 3012 ft | 261 kts | 7° |
| 2026-04-25 18:06 | 55.09052 | 82.50491 | 3010 ft | 261 kts | 6° |
| 2026-04-25 18:07 | 55.10790 | 82.51329 | 3017 ft | 261 kts | 30° |
| 2026-04-25 18:07 | 55.12181 | 82.53295 | 3014 ft | 257 kts | 55° |
| 2026-04-25 18:07 | 55.12973 | 82.56042 | 3346 ft | 251 kts | 82° |
| 2026-04-25 18:07 | 55.13303 | 82.59032 | 4224 ft | 251 kts | 83° |
| 2026-04-25 18:08 | 55.13628 | 82.62055 | 5063 ft | 254 kts | 82° |
| 2026-04-25 18:08 | 55.13931 | 82.65113 | 5859 ft | 257 kts | 88° |
| 2026-04-25 18:08 | 55.13601 | 82.68145 | 6569 ft | 257 kts | 122° |
| 2026-04-25 18:08 | 55.12379 | 82.70374 | 6964 ft | 255 kts | 156° |
| 2026-04-25 18:09 | 55.10711 | 82.71179 | 7065 ft | 249 kts | 175° |
| 2026-04-25 18:09 | 55.08993 | 82.71604 | 7103 ft | 251 kts | 175° |
| 2026-04-25 18:09 | 55.07254 | 82.72037 | 7825 ft | 253 kts | 175° |
| 2026-04-25 18:09 | 55.06101 | 82.72330 | 8358 ft | 254 kts | 175° |
| 2026-04-25 18:10 | 55.03738 | 82.72941 | 9405 ft | 260 kts | 175° |
| 2026-04-25 18:10 | 55.01933 | 82.73414 | 10154 ft | 263 kts | 176° |
| 2026-04-25 18:10 | 55.00113 | 82.73899 | 10897 ft | 265 kts | 176° |
| 2026-04-25 18:10 | 54.98287 | 82.74410 | 11656 ft | 266 kts | 176° |
| 2026-04-25 18:11 | 54.96454 | 82.74927 | 12425 ft | 267 kts | 177° |
| 2026-04-25 18:11 | 54.94621 | 82.75441 | 13201 ft | 267 kts | 177° |
| 2026-04-25 18:11 | 54.92797 | 82.76194 | 13939 ft | 277 kts | 162° |
| 2026-04-25 18:11 | 54.91257 | 82.78335 | 14541 ft | 297 kts | 130° |
| 2026-04-25 18:12 | 54.90443 | 82.81764 | 14791 ft | 328 kts | 100° |
| 2026-04-25 18:12 | 54.90456 | 82.85901 | 14914 ft | 354 kts | 85° |
| 2026-04-25 18:12 | 54.90892 | 82.90244 | 15046 ft | 376 kts | 78° |
| 2026-04-25 18:12 | 54.91441 | 82.94801 | 15218 ft | 393 kts | 86° |
| 2026-04-25 18:13 | 54.91411 | 82.99546 | 15692 ft | 397 kts | 95° |
| 2026-04-25 18:13 | 54.91273 | 83.04402 | 16289 ft | 401 kts | 95° |
| 2026-04-25 18:13 | 54.91132 | 83.09261 | 16913 ft | 404 kts | 95° |
| 2026-04-25 18:14 | 54.90844 | 83.19095 | 18140 ft | 411 kts | 95° |
| 2026-04-25 18:14 | 54.90701 | 83.24066 | 18695 ft | 414 kts | 95° |
| 2026-04-25 18:14 | 54.90559 | 83.29079 | 19243 ft | 416 kts | 95° |
| 2026-04-25 18:14 | 54.90416 | 83.34114 | 19785 ft | 419 kts | 95° |
| 2026-04-25 18:15 | 54.90263 | 83.39187 | 20340 ft | 421 kts | 95° |
| 2026-04-25 18:15 | 54.90103 | 83.44297 | 20894 ft | 424 kts | 95° |
| 2026-04-25 18:15 | 54.89945 | 83.49427 | 21449 ft | 426 kts | 95° |
| 2026-04-25 18:15 | 54.89788 | 83.54568 | 21985 ft | 429 kts | 95° |
| 2026-04-25 18:16 | 54.89629 | 83.59688 | 22504 ft | 431 kts | 94° |
| 2026-04-25 18:16 | 54.89467 | 83.64910 | 23025 ft | 434 kts | 94° |
| 2026-04-25 18:16 | 54.89126 | 83.75443 | 23958 ft | 439 kts | 94° |
| 2026-04-25 18:17 | 54.88948 | 83.80742 | 24358 ft | 441 kts | 94° |
| 2026-04-25 18:17 | 54.88764 | 83.86089 | 24755 ft | 443 kts | 94° |
| 2026-04-25 18:17 | 54.88579 | 83.91447 | 25141 ft | 445 kts | 94° |
| 2026-04-25 18:17 | 54.88393 | 83.96825 | 25509 ft | 447 kts | 94° |
| 2026-04-25 18:18 | 54.88205 | 84.02232 | 25879 ft | 449 kts | 94° |
| 2026-04-25 18:18 | 54.88015 | 84.07650 | 26237 ft | 452 kts | 94° |
| 2026-04-25 18:18 | 54.87822 | 84.13124 | 26597 ft | 454 kts | 94° |
| 2026-04-25 18:18 | 54.87624 | 84.18607 | 26946 ft | 456 kts | 94° |
| 2026-04-25 18:19 | 54.87423 | 84.24038 | 27288 ft | 458 kts | 94° |
| 2026-04-25 18:19 | 54.87211 | 84.29626 | 27628 ft | 460 kts | 94° |
| 2026-04-25 18:19 | 54.86998 | 84.35197 | 27962 ft | 462 kts | 94° |
| 2026-04-25 18:19 | 54.86784 | 84.40775 | 28290 ft | 464 kts | 94° |
| 2026-04-25 18:20 | 54.86570 | 84.46304 | 28610 ft | 466 kts | 94° |
| 2026-04-25 18:20 | 54.86344 | 84.52012 | 28919 ft | 468 kts | 94° |
| 2026-04-25 18:20 | 54.86120 | 84.57586 | 29214 ft | 470 kts | 94° |
| 2026-04-25 18:20 | 54.85891 | 84.63271 | 29505 ft | 472 kts | 94° |
| 2026-04-25 18:21 | 54.85659 | 84.68958 | 29790 ft | 474 kts | 95° |
| 2026-04-25 18:21 | 54.85398 | 84.74638 | 30059 ft | 476 kts | 95° |
| 2026-04-25 18:21 | 54.85101 | 84.80407 | 30300 ft | 478 kts | 95° |
| 2026-04-25 18:21 | 54.84785 | 84.86175 | 30538 ft | 479 kts | 96° |
| 2026-04-25 18:22 | 54.84462 | 84.91911 | 30746 ft | 480 kts | 96° |
| 2026-04-25 18:22 | 54.83816 | 85.03470 | 31248 ft | 481 kts | 95° |
| 2026-04-25 18:22 | 54.83502 | 85.09237 | 31551 ft | 480 kts | 95° |
| 2026-04-25 18:23 | 54.83189 | 85.14990 | 31856 ft | 479 kts | 95° |
| 2026-04-25 18:23 | 54.82882 | 85.20726 | 32159 ft | 478 kts | 94° |
| 2026-04-25 18:23 | 54.82853 | 85.26476 | 32452 ft | 476 kts | 85° |
| 2026-04-25 18:23 | 54.83300 | 85.32155 | 32747 ft | 474 kts | 76° |
| 2026-04-25 18:24 | 54.84202 | 85.37634 | 33038 ft | 471 kts | 68° |
| 2026-04-25 18:24 | 54.85367 | 85.42934 | 33336 ft | 470 kts | 67° |
| 2026-04-25 18:24 | 54.86534 | 85.48229 | 33639 ft | 469 kts | 67° |
| 2026-04-25 18:24 | 54.87693 | 85.53514 | 33946 ft | 468 kts | 67° |
| 2026-04-25 18:25 | 54.88846 | 85.58781 | 34236 ft | 467 kts | 67° |
| 2026-04-25 18:25 | 54.89996 | 85.64057 | 34485 ft | 466 kts | 67° |
| 2026-04-25 18:25 | 54.91140 | 85.69331 | 34720 ft | 466 kts | 67° |
| 2026-04-25 18:25 | 54.92281 | 85.74601 | 34950 ft | 466 kts | 67° |
| 2026-04-25 18:26 | 54.93419 | 85.79874 | 35186 ft | 466 kts | 67° |
| 2026-04-25 18:26 | 54.94554 | 85.85152 | 35393 ft | 465 kts | 67° |
| 2026-04-25 18:26 | 54.95683 | 85.90415 | 35621 ft | 465 kts | 67° |
| 2026-04-25 18:26 | 54.96812 | 85.95695 | 35821 ft | 465 kts | 67° |
| 2026-04-25 18:27 | 54.97922 | 86.00978 | 36022 ft | 465 kts | 68° |
| 2026-04-25 18:27 | 54.98944 | 86.06334 | 36222 ft | 465 kts | 70° |
| 2026-04-25 18:27 | 54.99867 | 86.11661 | 36413 ft | 466 kts | 71° |
| 2026-04-25 18:27 | 55.00751 | 86.17092 | 36587 ft | 466 kts | 72° |
| 2026-04-25 18:28 | 55.01616 | 86.22535 | 36761 ft | 466 kts | 72° |
| 2026-04-25 18:28 | 55.02480 | 86.27961 | 36951 ft | 465 kts | 71° |
| 2026-04-25 18:28 | 55.03364 | 86.33412 | 37122 ft | 465 kts | 71° |
| 2026-04-25 18:29 | 55.06074 | 86.49661 | 37166 ft | 465 kts | 71° |
| 2026-04-25 18:30 | 55.09662 | 86.71343 | 37175 ft | 464 kts | 71° |
| 2026-04-25 18:30 | 55.11412 | 86.82119 | 37176 ft | 464 kts | 71° |
| 2026-04-25 18:31 | 55.13170 | 86.92988 | 37183 ft | 464 kts | 71° |
| 2026-04-25 18:31 | 55.14928 | 87.03880 | 37186 ft | 464 kts | 71° |
| 2026-04-25 18:32 | 55.16673 | 87.14745 | 37195 ft | 464 kts | 71° |
| 2026-04-25 18:32 | 55.18404 | 87.25625 | 37201 ft | 464 kts | 71° |
| 2026-04-25 18:33 | 55.20125 | 87.36526 | 37208 ft | 464 kts | 71° |
| 2026-04-25 18:33 | 55.21830 | 87.47418 | 37214 ft | 464 kts | 71° |
| 2026-04-25 18:34 | 55.23538 | 87.58325 | 37219 ft | 464 kts | 72° |
| 2026-04-25 18:34 | 55.25229 | 87.69231 | 37227 ft | 463 kts | 72° |
| 2026-04-25 18:35 | 55.26902 | 87.80127 | 37228 ft | 463 kts | 72° |
| 2026-04-25 18:35 | 55.28568 | 87.91051 | 37236 ft | 463 kts | 72° |
| 2026-04-25 18:36 | 55.30228 | 88.01978 | 37231 ft | 463 kts | 72° |
| 2026-04-25 18:36 | 55.31880 | 88.12903 | 37225 ft | 463 kts | 72° |
| 2026-04-25 18:37 | 55.33514 | 88.23820 | 37223 ft | 463 kts | 72° |
| 2026-04-25 18:37 | 55.35131 | 88.34686 | 37223 ft | 462 kts | 72° |
| 2026-04-25 18:38 | 55.36745 | 88.45620 | 37221 ft | 462 kts | 72° |
| 2026-04-25 18:38 | 55.38352 | 88.56576 | 37215 ft | 462 kts | 72° |
| 2026-04-25 18:39 | 55.39949 | 88.67533 | 37217 ft | 462 kts | 72° |
| 2026-04-25 18:39 | 55.41532 | 88.78488 | 37217 ft | 462 kts | 72° |
| 2026-04-25 18:40 | 55.43068 | 88.89468 | 37218 ft | 463 kts | 77° |
| 2026-04-25 18:40 | 55.43726 | 89.00795 | 37221 ft | 465 kts | 82° |
| 2026-04-25 18:41 | 55.44248 | 89.12092 | 37220 ft | 465 kts | 82° |
| 2026-04-25 18:41 | 55.44764 | 89.23452 | 37225 ft | 465 kts | 82° |
| 2026-04-25 18:42 | 55.45105 | 89.31055 | 37227 ft | 465 kts | 82° |
| 2026-04-25 18:42 | 55.45754 | 89.46173 | 37223 ft | 465 kts | 82° |
| 2026-04-25 18:43 | 55.46238 | 89.57539 | 37221 ft | 465 kts | 82° |
| 2026-04-25 18:43 | 55.46714 | 89.68885 | 37222 ft | 464 kts | 83° |
| 2026-04-25 18:44 | 55.47172 | 89.80252 | 37221 ft | 464 kts | 83° |
| 2026-04-25 18:44 | 55.47621 | 89.91599 | 37217 ft | 464 kts | 83° |
| 2026-04-25 18:45 | 55.48059 | 90.02942 | 37222 ft | 464 kts | 83° |
| 2026-04-25 18:45 | 55.48481 | 90.14295 | 37219 ft | 464 kts | 83° |
| 2026-04-25 18:46 | 55.48892 | 90.25647 | 37216 ft | 463 kts | 83° |
| 2026-04-25 18:46 | 55.49049 | 90.29877 | 37223 ft | 463 kts | 83° |
| 2026-04-25 18:47 | 55.49465 | 90.41202 | 37217 ft | 463 kts | 83° |
| 2026-04-25 18:47 | 55.49855 | 90.52548 | 37218 ft | 463 kts | 83° |
| 2026-04-25 18:48 | 55.50232 | 90.63882 | 37225 ft | 462 kts | 83° |
| 2026-04-25 18:48 | 55.50542 | 90.73292 | 37221 ft | 462 kts | 83° |
| 2026-04-25 18:49 | 55.50910 | 90.84614 | 37227 ft | 462 kts | 83° |
| 2026-04-25 18:49 | 55.51262 | 90.95925 | 37228 ft | 462 kts | 83° |
| 2026-04-25 18:50 | 55.51601 | 91.07247 | 37231 ft | 462 kts | 83° |
| 2026-04-25 18:50 | 55.51363 | 91.18613 | 37232 ft | 465 kts | 91° |
| 2026-04-25 18:51 | 55.50852 | 91.28128 | 37235 ft | 465 kts | 91° |
| 2026-04-25 18:51 | 55.50143 | 91.41333 | 37239 ft | 465 kts | 91° |
| 2026-04-25 18:52 | 55.49523 | 91.52714 | 37241 ft | 465 kts | 91° |
| 2026-04-25 18:52 | 55.48891 | 91.64073 | 37247 ft | 465 kts | 91° |
| 2026-04-25 18:53 | 55.48244 | 91.75444 | 37247 ft | 465 kts | 92° |
| 2026-04-25 18:53 | 55.47582 | 91.86774 | 37251 ft | 465 kts | 92° |
| 2026-04-25 18:54 | 55.46576 | 92.03727 | 37252 ft | 465 kts | 92° |
| 2026-04-25 18:55 | 55.45894 | 92.15048 | 37256 ft | 465 kts | 92° |
| 2026-04-25 18:55 | 55.45201 | 92.26363 | 37254 ft | 464 kts | 92° |
| 2026-04-25 18:56 | 55.44503 | 92.37687 | 37258 ft | 464 kts | 92° |
| 2026-04-25 18:56 | 55.43794 | 92.48982 | 37256 ft | 464 kts | 92° |
| 2026-04-25 18:57 | 55.43074 | 92.60307 | 37263 ft | 464 kts | 92° |
| 2026-04-25 18:57 | 55.42362 | 92.71597 | 37265 ft | 464 kts | 92° |
| 2026-04-25 18:58 | 55.41634 | 92.82906 | 37277 ft | 465 kts | 92° |
| 2026-04-25 18:58 | 55.40514 | 92.99773 | 37276 ft | 465 kts | 92° |
| 2026-04-25 18:59 | 55.38985 | 93.22371 | 37285 ft | 464 kts | 92° |
| 2026-04-25 19:00 | 55.37819 | 93.39274 | 37286 ft | 464 kts | 92° |
| 2026-04-25 19:01 | 55.36625 | 93.56186 | 37285 ft | 465 kts | 92° |
| 2026-04-25 19:01 | 55.35822 | 93.67462 | 37303 ft | 466 kts | 92° |
| 2026-04-25 19:02 | 55.34574 | 93.84412 | 37297 ft | 466 kts | 92° |
| 2026-04-25 19:03 | 55.33456 | 93.99443 | 37301 ft | 466 kts | 92° |
| 2026-04-25 19:03 | 55.32468 | 94.12638 | 37299 ft | 466 kts | 92° |
| 2026-04-25 19:04 | 55.31167 | 94.29549 | 37300 ft | 466 kts | 93° |
| 2026-04-25 19:05 | 55.29393 | 94.52118 | 37302 ft | 467 kts | 93° |
| 2026-04-25 19:06 | 55.28491 | 94.63395 | 37309 ft | 467 kts | 93° |
| 2026-04-25 19:06 | 55.27115 | 94.80234 | 37309 ft | 467 kts | 93° |
| 2026-04-25 19:07 | 55.25776 | 94.97190 | 37313 ft | 467 kts | 92° |
| 2026-04-25 19:08 | 55.24644 | 95.14139 | 37313 ft | 467 kts | 91° |
| 2026-04-25 19:09 | 55.23164 | 95.34836 | 37311 ft | 467 kts | 92° |
| 2026-04-25 19:10 | 55.21765 | 95.53688 | 37310 ft | 468 kts | 92° |
| 2026-04-25 19:10 | 55.20921 | 95.64979 | 37313 ft | 468 kts | 92° |
| 2026-04-25 19:11 | 55.20061 | 95.76284 | 37319 ft | 468 kts | 92° |
| 2026-04-25 19:11 | 55.19191 | 95.87495 | 37318 ft | 468 kts | 92° |
| 2026-04-25 19:12 | 55.18304 | 95.98860 | 37322 ft | 468 kts | 92° |
| 2026-04-25 19:12 | 55.17422 | 96.10085 | 37321 ft | 469 kts | 92° |
| 2026-04-25 19:13 | 55.16520 | 96.21395 | 37331 ft | 469 kts | 93° |
| 2026-04-25 19:13 | 55.15612 | 96.32692 | 37326 ft | 469 kts | 92° |
| 2026-04-25 19:14 | 55.14689 | 96.44000 | 37336 ft | 469 kts | 93° |
| 2026-04-25 19:14 | 55.13749 | 96.55306 | 37338 ft | 470 kts | 93° |
| 2026-04-25 19:15 | 55.12810 | 96.66539 | 37342 ft | 470 kts | 93° |
| 2026-04-25 19:15 | 55.11855 | 96.77852 | 37342 ft | 470 kts | 93° |
| 2026-04-25 19:16 | 55.10881 | 96.89175 | 37342 ft | 471 kts | 93° |
| 2026-04-25 19:16 | 55.09901 | 97.00499 | 37343 ft | 471 kts | 93° |
| 2026-04-25 19:17 | 55.08899 | 97.11828 | 37339 ft | 471 kts | 93° |
| 2026-04-25 19:17 | 55.07866 | 97.23061 | 37346 ft | 472 kts | 94° |
| 2026-04-25 19:18 | 55.06780 | 97.34365 | 37346 ft | 472 kts | 94° |
| 2026-04-25 19:18 | 55.05666 | 97.45736 | 37348 ft | 473 kts | 94° |
| 2026-04-25 19:19 | 55.04559 | 97.57037 | 37352 ft | 473 kts | 94° |
| 2026-04-25 19:19 | 55.03461 | 97.68291 | 37360 ft | 473 kts | 94° |
| 2026-04-25 19:20 | 55.02526 | 97.77766 | 37357 ft | 474 kts | 94° |
| 2026-04-25 19:20 | 55.01219 | 97.90912 | 37356 ft | 474 kts | 94° |
| 2026-04-25 19:21 | 55.00069 | 98.02221 | 37356 ft | 474 kts | 95° |
| 2026-04-25 19:21 | 54.98330 | 98.19180 | 37363 ft | 474 kts | 95° |
| 2026-04-25 19:22 | 54.97157 | 98.30454 | 37363 ft | 474 kts | 95° |
| 2026-04-25 19:23 | 54.95380 | 98.47414 | 37367 ft | 474 kts | 95° |
| 2026-04-25 19:23 | 54.93571 | 98.64330 | 37358 ft | 474 kts | 95° |
| 2026-04-25 19:24 | 54.92357 | 98.75590 | 37373 ft | 474 kts | 95° |
| 2026-04-25 19:25 | 54.89896 | 98.98137 | 37357 ft | 475 kts | 95° |
| 2026-04-25 19:25 | 54.88137 | 99.09176 | 37358 ft | 484 kts | 110° |
| 2026-04-25 19:26 | 54.85161 | 99.19701 | 37360 ft | 485 kts | 112° |
| 2026-04-25 19:26 | 54.82173 | 99.30209 | 37359 ft | 486 kts | 112° |
| 2026-04-25 19:27 | 54.80162 | 99.37230 | 37356 ft | 486 kts | 112° |
| 2026-04-25 19:27 | 54.76164 | 99.51180 | 37354 ft | 486 kts | 112° |
| 2026-04-25 19:28 | 54.73120 | 99.61653 | 37355 ft | 486 kts | 112° |
| 2026-04-25 19:28 | 54.70068 | 99.72088 | 37355 ft | 486 kts | 112° |
| 2026-04-25 19:29 | 54.67030 | 99.82513 | 37351 ft | 486 kts | 112° |
| 2026-04-25 19:29 | 54.63974 | 99.92955 | 37345 ft | 486 kts | 112° |
| 2026-04-25 19:30 | 54.60904 | 100.03351 | 37341 ft | 486 kts | 112° |
| 2026-04-25 19:30 | 54.58343 | 100.11992 | 37342 ft | 486 kts | 113° |
| 2026-04-25 19:31 | 54.55256 | 100.22373 | 37341 ft | 487 kts | 113° |
| 2026-04-25 19:31 | 54.52164 | 100.32745 | 37339 ft | 487 kts | 113° |
| 2026-04-25 19:32 | 54.49066 | 100.43094 | 37336 ft | 487 kts | 113° |
| 2026-04-25 19:32 | 54.46478 | 100.51686 | 37336 ft | 487 kts | 113° |
| 2026-04-25 19:33 | 54.42817 | 100.63760 | 37340 ft | 487 kts | 114° |
| 2026-04-25 19:33 | 54.39685 | 100.74064 | 37341 ft | 487 kts | 114° |
| 2026-04-25 19:34 | 54.36549 | 100.84361 | 37340 ft | 487 kts | 114° |
| 2026-04-25 19:34 | 54.33401 | 100.94651 | 37341 ft | 487 kts | 114° |
| 2026-04-25 19:35 | 54.30240 | 101.04913 | 37342 ft | 487 kts | 114° |
| 2026-04-25 19:35 | 54.27071 | 101.15164 | 37349 ft | 487 kts | 114° |
| 2026-04-25 19:36 | 54.23895 | 101.25404 | 37351 ft | 487 kts | 114° |
| 2026-04-25 19:36 | 54.20717 | 101.35612 | 37351 ft | 487 kts | 114° |
| 2026-04-25 19:37 | 54.17521 | 101.45819 | 37348 ft | 487 kts | 114° |
| 2026-04-25 19:37 | 54.14315 | 101.55997 | 37348 ft | 487 kts | 115° |
| 2026-04-25 19:38 | 54.11108 | 101.66158 | 37343 ft | 486 kts | 115° |
| 2026-04-25 19:38 | 54.07917 | 101.76223 | 37342 ft | 486 kts | 115° |
| 2026-04-25 19:39 | 54.04689 | 101.86363 | 37342 ft | 486 kts | 115° |
| 2026-04-25 19:39 | 54.01451 | 101.96478 | 37343 ft | 486 kts | 115° |
| 2026-04-25 19:40 | 53.98223 | 102.06568 | 37338 ft | 486 kts | 115° |
| 2026-04-25 19:40 | 53.94992 | 102.16678 | 37336 ft | 486 kts | 115° |
| 2026-04-25 19:41 | 53.91751 | 102.26758 | 37322 ft | 486 kts | 115° |
| 2026-04-25 19:41 | 53.89046 | 102.35129 | 37336 ft | 486 kts | 115° |
| 2026-04-25 19:42 | 53.85257 | 102.46808 | 37333 ft | 486 kts | 115° |
| 2026-04-25 19:42 | 53.81979 | 102.56844 | 37333 ft | 486 kts | 116° |
| 2026-04-25 19:43 | 53.78692 | 102.66852 | 37331 ft | 486 kts | 116° |
| 2026-04-25 19:43 | 53.75410 | 102.76834 | 35869 ft | 484 kts | 121° |
| 2026-04-25 19:44 | 53.73801 | 102.81715 | 37495 ft | 470 kts | 117° |
| 2026-04-25 19:44 | 53.72194 | 102.86596 | 37311 ft | 479 kts | 116° |
| 2026-04-25 19:44 | 53.68921 | 102.96482 | 37290 ft | 484 kts | 116° |
| 2026-04-25 19:45 | 53.65648 | 103.06323 | 37288 ft | 485 kts | 116° |
| 2026-04-25 19:45 | 53.62329 | 103.16246 | 37282 ft | 485 kts | 116° |
| 2026-04-25 19:46 | 53.59010 | 103.26137 | 37281 ft | 485 kts | 116° |
| 2026-04-25 19:46 | 53.55683 | 103.36033 | 37284 ft | 485 kts | 116° |
| 2026-04-25 19:47 | 53.52351 | 103.45890 | 37285 ft | 485 kts | 117° |
| 2026-04-25 19:47 | 53.48991 | 103.55751 | 37286 ft | 486 kts | 117° |
| 2026-04-25 19:48 | 53.45642 | 103.65579 | 37284 ft | 485 kts | 117° |
| 2026-04-25 19:48 | 53.42300 | 103.75358 | 37286 ft | 485 kts | 117° |
| 2026-04-25 19:49 | 53.40051 | 103.81909 | 37280 ft | 485 kts | 117° |
| 2026-04-25 19:49 | 53.35647 | 103.95020 | 37276 ft | 484 kts | 115° |
| 2026-04-25 19:50 | 53.31005 | 104.10038 | 37271 ft | 484 kts | 114° |
| 2026-04-25 19:51 | 53.27893 | 104.20027 | 37270 ft | 484 kts | 115° |
| 2026-04-25 19:51 | 53.24719 | 104.29978 | 37273 ft | 485 kts | 115° |
| 2026-04-25 19:52 | 53.21533 | 104.39897 | 37266 ft | 485 kts | 116° |
| 2026-04-25 19:52 | 53.18349 | 104.49802 | 37268 ft | 485 kts | 116° |
| 2026-04-25 19:53 | 53.15181 | 104.59636 | 37265 ft | 485 kts | 116° |
| 2026-04-25 19:53 | 53.12043 | 104.69648 | 37267 ft | 484 kts | 114° |
| 2026-04-25 19:54 | 53.09009 | 104.79658 | 37268 ft | 484 kts | 114° |
| 2026-04-25 19:54 | 53.05987 | 104.89575 | 37263 ft | 484 kts | 115° |
| 2026-04-25 19:55 | 53.02909 | 104.99522 | 37272 ft | 484 kts | 115° |
| 2026-04-25 19:55 | 52.99798 | 105.09476 | 37283 ft | 484 kts | 115° |
| 2026-04-25 19:56 | 52.96670 | 105.19364 | 36915 ft | 484 kts | 118° |
| 2026-04-25 19:56 | 52.94771 | 105.23970 | 36231 ft | 485 kts | 128° |
| 2026-04-25 19:56 | 52.92602 | 105.28267 | 35537 ft | 486 kts | 128° |
| 2026-04-25 19:56 | 52.90416 | 105.32558 | 34840 ft | 486 kts | 128° |
| 2026-04-25 19:57 | 52.88233 | 105.36838 | 34142 ft | 487 kts | 128° |
| 2026-04-25 19:57 | 52.86056 | 105.41103 | 33340 ft | 486 kts | 129° |
| 2026-04-25 19:57 | 52.83872 | 105.45368 | 32774 ft | 481 kts | 128° |
| 2026-04-25 19:57 | 52.81724 | 105.49552 | 32239 ft | 475 kts | 129° |
| 2026-04-25 19:58 | 52.79595 | 105.53694 | 31703 ft | 470 kts | 129° |
| 2026-04-25 19:58 | 52.77500 | 105.57769 | 31188 ft | 465 kts | 129° |
| 2026-04-25 19:58 | 52.75406 | 105.61841 | 30685 ft | 460 kts | 129° |
| 2026-04-25 19:58 | 52.73341 | 105.65851 | 30154 ft | 455 kts | 129° |
| 2026-04-25 19:59 | 52.71304 | 105.69803 | 29558 ft | 451 kts | 129° |
| 2026-04-25 19:59 | 52.69276 | 105.73731 | 28982 ft | 447 kts | 129° |
| 2026-04-25 19:59 | 52.67268 | 105.77611 | 28405 ft | 443 kts | 129° |
| 2026-04-25 19:59 | 52.65276 | 105.81445 | 27854 ft | 439 kts | 129° |
| 2026-04-25 20:00 | 52.63295 | 105.85243 | 27299 ft | 435 kts | 130° |
| 2026-04-25 20:00 | 52.62658 | 105.86465 | 27128 ft | 434 kts | 130° |
| 2026-04-25 20:00 | 52.59388 | 105.92739 | 26278 ft | 428 kts | 130° |
| 2026-04-25 20:00 | 52.57479 | 105.96394 | 25784 ft | 424 kts | 130° |
| 2026-04-25 20:01 | 52.53659 | 106.03696 | 24806 ft | 418 kts | 131° |
| 2026-04-25 20:01 | 52.51767 | 106.07310 | 24331 ft | 415 kts | 131° |
| 2026-04-25 20:01 | 52.49890 | 106.10891 | 23882 ft | 413 kts | 131° |
| 2026-04-25 20:02 | 52.48026 | 106.14440 | 23338 ft | 410 kts | 131° |
| 2026-04-25 20:02 | 52.46168 | 106.17972 | 22809 ft | 407 kts | 131° |
| 2026-04-25 20:02 | 52.44324 | 106.21467 | 22291 ft | 404 kts | 131° |
| 2026-04-25 20:02 | 52.42486 | 106.24943 | 21781 ft | 402 kts | 131° |
| 2026-04-25 20:03 | 52.40664 | 106.28382 | 21293 ft | 400 kts | 131° |
| 2026-04-25 20:03 | 52.38839 | 106.31820 | 20801 ft | 397 kts | 131° |
| 2026-04-25 20:03 | 52.37036 | 106.35214 | 20324 ft | 395 kts | 131° |
| 2026-04-25 20:03 | 52.35236 | 106.38602 | 19846 ft | 393 kts | 131° |
| 2026-04-25 20:04 | 52.33447 | 106.41965 | 19388 ft | 391 kts | 131° |
| 2026-04-25 20:04 | 52.31662 | 106.45321 | 18919 ft | 389 kts | 131° |
| 2026-04-25 20:04 | 52.29889 | 106.48663 | 18471 ft | 387 kts | 131° |
| 2026-04-25 20:04 | 52.28171 | 106.51973 | 17991 ft | 385 kts | 130° |
| 2026-04-25 20:05 | 52.26475 | 106.55333 | 17542 ft | 382 kts | 129° |
| 2026-04-25 20:05 | 52.24781 | 106.58728 | 17093 ft | 379 kts | 129° |
| 2026-04-25 20:05 | 52.23150 | 106.61995 | 16661 ft | 376 kts | 129° |
| 2026-04-25 20:05 | 52.21500 | 106.65290 | 16253 ft | 373 kts | 129° |
| 2026-04-25 20:06 | 52.19854 | 106.68556 | 15827 ft | 370 kts | 129° |
| 2026-04-25 20:06 | 52.18219 | 106.71784 | 15426 ft | 368 kts | 129° |
| 2026-04-25 20:06 | 52.16594 | 106.74985 | 15035 ft | 365 kts | 129° |
| 2026-04-25 20:06 | 52.14979 | 106.78159 | 14637 ft | 362 kts | 129° |
| 2026-04-25 20:07 | 52.13376 | 106.81301 | 14246 ft | 360 kts | 128° |
| 2026-04-25 20:07 | 52.11785 | 106.84422 | 13825 ft | 357 kts | 128° |
| 2026-04-25 20:07 | 52.10200 | 106.87522 | 13362 ft | 355 kts | 129° |
| 2026-04-25 20:07 | 52.08532 | 106.90462 | 12922 ft | 353 kts | 140° |
| 2026-04-25 20:08 | 52.06433 | 106.92420 | 12488 ft | 349 kts | 163° |
| 2026-04-25 20:08 | 52.04057 | 106.93021 | 12036 ft | 343 kts | 181° |
| 2026-04-25 20:08 | 52.01674 | 106.93274 | 11556 ft | 344 kts | 175° |
| 2026-04-25 20:08 | 51.99302 | 106.93438 | 11105 ft | 339 kts | 189° |
| 2026-04-25 20:09 | 51.97005 | 106.92865 | 10866 ft | 330 kts | 193° |
| 2026-04-25 20:09 | 51.94774 | 106.92221 | 10732 ft | 319 kts | 193° |
| 2026-04-25 20:09 | 51.92623 | 106.91593 | 10538 ft | 312 kts | 193° |
| 2026-04-25 20:09 | 51.90496 | 106.90967 | 10216 ft | 309 kts | 193° |
| 2026-04-25 20:10 | 51.89102 | 106.90550 | 9951 ft | 308 kts | 193° |
| 2026-04-25 20:10 | 51.86284 | 106.89697 | 9442 ft | 305 kts | 193° |
| 2026-04-25 20:10 | 51.84204 | 106.89062 | 9092 ft | 303 kts | 193° |
| 2026-04-25 20:10 | 51.82168 | 106.88275 | 8746 ft | 299 kts | 198° |
| 2026-04-25 20:11 | 51.80174 | 106.87394 | 8373 ft | 297 kts | 198° |
| 2026-04-25 20:11 | 51.78185 | 106.86497 | 7983 ft | 294 kts | 198° |
| 2026-04-25 20:11 | 51.76226 | 106.85607 | 7578 ft | 292 kts | 198° |
| 2026-04-25 20:11 | 51.74301 | 106.84734 | 7229 ft | 290 kts | 198° |
| 2026-04-25 20:12 | 51.72347 | 106.83845 | 6842 ft | 287 kts | 198° |
| 2026-04-25 20:12 | 51.70459 | 106.82978 | 6458 ft | 285 kts | 198° |
| 2026-04-25 20:12 | 51.68561 | 106.82099 | 6086 ft | 280 kts | 198° |
| 2026-04-25 20:12 | 51.67934 | 106.81808 | 6044 ft | 275 kts | 198° |
| 2026-04-25 20:13 | 51.64977 | 106.81305 | 6050 ft | 246 kts | 168° |
| 2026-04-25 20:13 | 51.63442 | 106.82285 | 6043 ft | 230 kts | 145° |
| 2026-04-25 20:13 | 51.62319 | 106.83944 | 6048 ft | 210 kts | 123° |
| 2026-04-25 20:13 | 51.61664 | 106.85883 | 6075 ft | 189 kts | 104° |
| 2026-04-25 20:14 | 51.61414 | 106.87887 | 6046 ft | 179 kts | 87° |
| 2026-04-25 20:14 | 51.61515 | 106.89850 | 6040 ft | 174 kts | 71° |
| 2026-04-25 20:14 | 51.61762 | 106.91087 | 6039 ft | 170 kts | 60° |
| 2026-04-25 20:14 | 51.62350 | 106.92702 | 6043 ft | 166 kts | 46° |
| 2026-04-25 20:15 | 51.63068 | 106.94130 | 6044 ft | 166 kts | 46° |
| 2026-04-25 20:15 | 51.63788 | 106.95580 | 6040 ft | 166 kts | 46° |
| 2026-04-25 20:15 | 51.64509 | 106.97035 | 6039 ft | 166 kts | 45° |
| 2026-04-25 20:15 | 51.65230 | 106.98488 | 6038 ft | 166 kts | 46° |
| 2026-04-25 20:16 | 51.65948 | 106.99937 | 5954 ft | 164 kts | 45° |
| 2026-04-25 20:16 | 51.66662 | 107.01381 | 5641 ft | 165 kts | 46° |
| 2026-04-25 20:16 | 51.67377 | 107.02824 | 5413 ft | 166 kts | 46° |
| 2026-04-25 20:16 | 51.68098 | 107.04282 | 5166 ft | 166 kts | 47° |
| 2026-04-25 20:17 | 51.68815 | 107.05736 | 4920 ft | 166 kts | 47° |
| 2026-04-25 20:17 | 51.69532 | 107.07187 | 4688 ft | 165 kts | 48° |
| 2026-04-25 20:17 | 51.70245 | 107.08627 | 4438 ft | 161 kts | 48° |
| 2026-04-25 20:17 | 51.70947 | 107.10046 | 4054 ft | 163 kts | 49° |
| 2026-04-25 20:18 | 51.71652 | 107.11472 | 3723 ft | 161 kts | 50° |
| 2026-04-25 20:18 | 51.72353 | 107.12895 | 3726 ft | 163 kts | 49° |
| 2026-04-25 20:18 | 51.73028 | 107.14266 | 3721 ft | 150 kts | 49° |
| 2026-04-25 20:18 | 51.73659 | 107.15553 | 3717 ft | 143 kts | 49° |
| 2026-04-25 20:19 | 51.74276 | 107.16804 | 3718 ft | 141 kts | 49° |
| 2026-04-25 20:19 | 51.74886 | 107.18044 | 3723 ft | 140 kts | 49° |
| 2026-04-25 20:19 | 51.75491 | 107.19273 | 3723 ft | 140 kts | 49° |
| 2026-04-25 20:19 | 51.76100 | 107.20506 | 3720 ft | 140 kts | 49° |
| 2026-04-25 20:20 | 51.76707 | 107.21736 | 3707 ft | 140 kts | 49° |
| 2026-04-25 20:20 | 51.77314 | 107.22970 | 3717 ft | 140 kts | 49° |
| 2026-04-25 20:20 | 51.77921 | 107.24203 | 3709 ft | 141 kts | 49° |
| 2026-04-25 20:20 | 51.78475 | 107.25500 | 3695 ft | 142 kts | 63° |
| 2026-04-25 20:21 | 51.78736 | 107.27044 | 3597 ft | 143 kts | 76° |
| 2026-04-25 20:21 | 51.78944 | 107.28617 | 3414 ft | 143 kts | 76° |
| 2026-04-25 20:21 | 51.79151 | 107.30178 | 3205 ft | 142 kts | 77° |
| 2026-04-25 20:21 | 51.79357 | 107.31735 | 2985 ft | 141 kts | 77° |
| 2026-04-25 20:22 | 51.79551 | 107.33283 | 2777 ft | 141 kts | 83° |
| 2026-04-25 20:22 | 51.79612 | 107.34323 | 2623 ft | 140 kts | 83° |
| 2026-04-25 20:22 | 51.79845 | 107.36384 | 2366 ft | 139 kts | 78° |
| 2026-04-25 20:22 | 51.80031 | 107.37919 | 2194 ft | 142 kts | 78° |
| 2026-04-25 20:23 | 51.80217 | 107.39459 | 1996 ft | 138 kts | 77° |
| 2026-04-25 20:23 | 51.80414 | 107.40980 | 1820 ft | 137 kts | 77° |
| 2026-04-25 20:23 | 51.80602 | 107.42482 | 1688 ft | 130 kts | 78° |
| 2026-04-25 20:23 | 51.80734 | 107.43501 | 1686 ft | 49 kts | 78° |
| 2026-04-25 20:24 | 51.80758 | 107.43681 | 1686 ft | 8 kts | 78° |
| 2026-04-25 20:24 | 51.80747 | 107.43878 | 1692 ft | 20 kts | 147° |
| 2026-04-25 20:24 | 51.80641 | 107.43920 | 1688 ft | 2 kts | 164° |
| 2026-04-25 20:25 | 51.80639 | 107.43921 | 1684 ft | 3 kts | 164° |
| 2026-04-25 20:25 | 51.80587 | 107.43977 | 1685 ft | 9 kts | 99° |
| 2026-04-25 20:25 | 51.80600 | 107.44034 | 1690 ft | 5 kts | 72° |
| 2026-04-25 20:26 | 51.80608 | 107.44076 | 1684 ft | 3 kts | 76° |
| 2026-04-25 20:26 | 51.80612 | 107.44109 | 1684 ft | 2 kts | 77° |
| 2026-04-25 20:26 | 51.80618 | 107.44152 | 1684 ft | 11 kts | 78° |
| 2026-04-25 20:26 | 51.80596 | 107.44236 | 1684 ft | 6 kts | 146° |
| 2026-04-25 20:27 | 51.80573 | 107.44246 | 1684 ft | 2 kts | 170° |
| 2026-04-25 20:27 | 51.80561 | 107.44249 | 1692 ft | 0 kts | 171° |